createdAt,value
2017-08-08T00:00:04.545Z,21.30
2017-08-08T00:02:32.065Z,21.20
2017-08-08T00:04:59.585Z,21.30
2017-08-08T00:07:27.100Z,21.30
2017-08-08T00:09:54.617Z,21.30
2017-08-08T00:12:22.134Z,21.40
2017-08-08T00:14:49.653Z,21.30
2017-08-08T00:17:17.177Z,21.30
2017-08-08T00:19:44.695Z,21.30
2017-08-08T00:22:12.211Z,21.00
2017-08-08T00:24:40.490Z,21.20
2017-08-08T00:27:08.777Z,21.20
2017-08-08T00:29:37.061Z,20.90
2017-08-08T00:32:04.583Z,20.90
2017-08-08T00:34:32.106Z,20.90
2017-08-08T00:36:59.630Z,20.80
2017-08-08T00:39:27.154Z,20.80
2017-08-08T00:41:54.672Z,20.90
2017-08-08T00:44:22.214Z,20.80
2017-08-08T00:46:49.731Z,20.80
2017-08-08T00:49:17.245Z,20.70
2017-08-08T00:51:44.785Z,20.60
2017-08-08T00:54:12.304Z,20.70
2017-08-08T00:56:39.826Z,20.30
2017-08-08T00:59:07.370Z,20.30
2017-08-08T01:01:34.890Z,20.20
2017-08-08T01:04:03.173Z,20.50
2017-08-08T01:06:31.478Z,20.40
2017-08-08T01:08:59.001Z,20.40
2017-08-08T01:11:27.288Z,20.40
2017-08-08T01:13:55.595Z,20.40
2017-08-08T01:16:23.111Z,20.40
2017-08-08T01:18:51.394Z,20.30
2017-08-08T01:21:19.697Z,20.20
2017-08-08T01:23:47.214Z,20.20
2017-08-08T01:26:14.738Z,20.30
2017-08-08T01:28:42.282Z,20.30
2017-08-08T01:31:09.797Z,20.40
2017-08-08T01:33:38.081Z,20.30
2017-08-08T01:36:06.366Z,20.20
2017-08-08T01:38:33.892Z,20.20
2017-08-08T01:41:01.429Z,19.90
2017-08-08T01:43:28.941Z,19.90
2017-08-08T01:45:56.454Z,20.00
2017-08-08T01:48:23.968Z,20.20
2017-08-08T01:50:51.486Z,20.20
2017-08-08T01:53:19.026Z,19.90
2017-08-08T01:55:46.545Z,19.80
2017-08-08T01:58:14.061Z,19.50
2017-08-08T02:00:41.602Z,19.50
2017-08-08T02:03:09.117Z,19.40
2017-08-08T02:05:36.665Z,19.40
2017-08-08T02:08:04.206Z,19.50
2017-08-08T02:10:32.489Z,19.40
2017-08-08T02:13:00.775Z,19.50
2017-08-08T02:15:28.305Z,19.50
2017-08-08T02:17:55.846Z,19.70
2017-08-08T02:20:23.365Z,19.50
2017-08-08T02:22:50.882Z,19.60
2017-08-08T02:25:18.415Z,19.50
2017-08-08T02:27:45.934Z,19.50
2017-08-08T02:30:13.485Z,19.50
2017-08-08T02:32:41.010Z,19.40
2017-08-08T02:35:08.529Z,19.50
2017-08-08T02:37:36.043Z,19.20
2017-08-08T02:40:04.328Z,19.50
2017-08-08T02:42:31.870Z,19.50
2017-08-08T02:45:00.149Z,19.40
2017-08-08T02:47:28.429Z,19.40
2017-08-08T02:49:56.713Z,19.40
2017-08-08T02:52:24.233Z,19.30
2017-08-08T02:54:51.777Z,19.40
2017-08-08T02:57:19.293Z,19.20
2017-08-08T02:59:46.810Z,19.10
2017-08-08T03:02:14.335Z,18.90
2017-08-08T03:04:41.866Z,19.00
2017-08-08T03:07:09.405Z,18.90
2017-08-08T03:09:37.696Z,18.70
2017-08-08T03:12:05.210Z,18.70
2017-08-08T03:14:32.725Z,18.50
2017-08-08T03:17:00.242Z,18.70
2017-08-08T03:19:27.786Z,18.80
2017-08-08T03:21:55.297Z,18.70
2017-08-08T03:24:22.818Z,18.70
2017-08-08T03:26:50.342Z,18.50
2017-08-08T03:29:17.865Z,18.40
2017-08-08T03:31:45.413Z,18.20
2017-08-08T03:34:13.701Z,18.10
2017-08-08T03:36:41.238Z,18.10
2017-08-08T03:39:09.526Z,17.90
2017-08-08T03:41:37.050Z,17.90
2017-08-08T03:44:04.589Z,18.00
2017-08-08T03:46:32.110Z,18.10
2017-08-08T03:48:59.630Z,18.40
2017-08-08T03:51:27.150Z,18.20
2017-08-08T03:53:54.661Z,18.30
2017-08-08T03:56:22.978Z,18.20
2017-08-08T03:58:50.493Z,18.20
2017-08-08T04:01:18.787Z,17.90
2017-08-08T04:03:46.305Z,17.90
2017-08-08T04:06:13.822Z,17.80
2017-08-08T04:08:41.365Z,17.90
2017-08-08T04:11:08.885Z,18.20
2017-08-08T04:13:36.399Z,18.40
2017-08-08T04:16:03.935Z,18.40
2017-08-08T04:18:31.456Z,18.40
2017-08-08T04:20:58.998Z,18.10
2017-08-08T04:23:26.513Z,18.20
2017-08-08T04:25:54.030Z,18.30
2017-08-08T04:28:21.565Z,18.10
2017-08-08T04:30:49.110Z,18.30
2017-08-08T04:33:18.550Z,18.40
2017-08-08T04:35:46.066Z,18.70
2017-08-08T04:38:13.581Z,18.80
2017-08-08T04:40:41.862Z,18.60
2017-08-08T04:43:10.182Z,18.60
2017-08-08T04:45:37.725Z,18.60
2017-08-08T04:48:05.249Z,18.80
2017-08-08T04:50:33.534Z,18.50
2017-08-08T04:53:01.831Z,18.40
2017-08-08T04:55:29.354Z,18.40
2017-08-08T04:57:56.898Z,18.60
2017-08-08T05:00:24.412Z,18.50
2017-08-08T05:02:51.934Z,18.30
2017-08-08T05:05:19.458Z,18.20
2017-08-08T05:07:46.973Z,18.40
2017-08-08T05:10:14.517Z,18.70
2017-08-08T05:12:42.798Z,18.80
2017-08-08T05:15:11.081Z,18.80
2017-08-08T05:17:38.606Z,18.80
2017-08-08T05:20:06.127Z,18.70
2017-08-08T05:22:33.677Z,18.60
2017-08-08T05:25:01.194Z,18.60
2017-08-08T05:27:29.477Z,18.40
2017-08-08T05:29:57.763Z,18.70
2017-08-08T05:32:25.277Z,18.60
2017-08-08T05:34:52.824Z,18.70
2017-08-08T05:37:20.339Z,18.50
2017-08-08T05:39:47.857Z,18.60
2017-08-08T05:42:15.370Z,18.70
2017-08-08T05:44:42.892Z,18.70
2017-08-08T05:47:11.202Z,18.70
2017-08-08T05:49:38.717Z,18.70
2017-08-08T05:52:06.234Z,18.60
2017-08-08T05:54:33.757Z,18.80
2017-08-08T05:57:01.281Z,19.00
2017-08-08T05:59:28.822Z,19.10
2017-08-08T06:01:56.341Z,19.10
2017-08-08T06:04:23.858Z,19.10
2017-08-08T06:06:51.370Z,19.00
2017-08-08T06:09:18.887Z,18.80
2017-08-08T06:11:46.430Z,18.80
2017-08-08T06:14:13.953Z,18.80
2017-08-08T06:16:41.467Z,18.50
2017-08-08T06:19:09.745Z,19.00
2017-08-08T06:21:38.030Z,19.00
2017-08-08T06:24:06.334Z,19.10
2017-08-08T06:26:33.851Z,19.10
2017-08-08T06:29:02.142Z,19.30
2017-08-08T06:31:30.426Z,19.50
2017-08-08T06:33:57.942Z,19.50
2017-08-08T06:36:25.482Z,19.40
2017-08-08T06:38:52.998Z,19.40
2017-08-08T06:41:20.515Z,19.40
2017-08-08T06:43:48.034Z,19.40
2017-08-08T06:46:15.553Z,19.20
2017-08-08T06:48:43.863Z,19.50
2017-08-08T06:51:11.391Z,19.40
2017-08-08T06:53:39.670Z,19.40
2017-08-08T06:56:07.953Z,19.50
2017-08-08T06:58:36.230Z,19.70
2017-08-08T07:01:03.780Z,19.60
2017-08-08T07:03:32.062Z,20.00
2017-08-08T07:06:00.805Z,20.00
2017-08-08T07:08:28.543Z,20.00
2017-08-08T07:10:56.055Z,20.20
2017-08-08T07:13:24.361Z,20.30
2017-08-08T07:15:51.877Z,20.30
2017-08-08T07:18:19.397Z,20.40
2017-08-08T07:20:47.166Z,20.40
2017-08-08T07:23:14.874Z,20.50
2017-08-08T07:25:43.622Z,20.70
2017-08-08T07:28:11.345Z,20.70
2017-08-08T07:30:38.911Z,20.50
2017-08-08T07:33:06.608Z,20.60
2017-08-08T07:35:34.122Z,20.80
2017-08-08T07:38:01.671Z,20.80
2017-08-08T07:40:30.392Z,20.90
2017-08-08T07:42:58.130Z,20.90
2017-08-08T07:45:25.646Z,21.00
2017-08-08T07:47:53.161Z,20.90
2017-08-08T07:50:20.999Z,21.10
2017-08-08T07:52:49.515Z,21.30
2017-08-08T07:55:17.254Z,21.30
2017-08-08T07:57:44.778Z,21.50
2017-08-08T08:00:12.298Z,21.50
2017-08-08T08:02:39.841Z,21.50
2017-08-08T08:05:07.357Z,21.60
2017-08-08T08:07:34.871Z,21.60
2017-08-08T08:10:02.391Z,21.80
2017-08-08T08:12:30.986Z,22.30
2017-08-08T08:14:58.793Z,22.30
2017-08-08T08:17:26.329Z,22.30
2017-08-08T08:19:53.886Z,22.50
2017-08-08T08:22:21.409Z,22.70
2017-08-08T08:24:49.690Z,22.50
2017-08-08T08:27:18.007Z,22.20
2017-08-08T08:29:45.686Z,22.20
2017-08-08T08:32:13.431Z,22.50
2017-08-08T08:34:40.961Z,22.90
2017-08-08T08:37:08.477Z,23.10
2017-08-08T08:39:36.105Z,23.30
2017-08-08T08:42:03.997Z,23.40
2017-08-08T08:44:31.509Z,23.50
2017-08-08T08:46:59.034Z,23.50
2017-08-08T08:49:26.567Z,23.50
2017-08-08T08:51:54.113Z,23.40
2017-08-08T08:54:21.821Z,23.60
2017-08-08T08:56:50.454Z,23.90
2017-08-08T08:59:18.066Z,23.80
2017-08-08T09:01:46.573Z,23.90
2017-08-08T09:04:14.330Z,23.90
2017-08-08T09:06:42.018Z,23.90
2017-08-08T09:09:09.854Z,24.10
2017-08-08T09:11:37.375Z,24.30
2017-08-08T09:14:04.887Z,24.60
2017-08-08T09:16:32.650Z,24.70
2017-08-08T09:19:00.402Z,24.80
2017-08-08T09:21:28.074Z,24.70
2017-08-08T09:23:55.850Z,24.60
2017-08-08T09:26:23.717Z,24.70
2017-08-08T09:28:51.261Z,24.80
2017-08-08T09:31:18.782Z,25.10
2017-08-08T09:33:46.295Z,25.40
2017-08-08T09:36:13.805Z,25.40
2017-08-08T09:38:42.097Z,25.40
2017-08-08T09:41:10.914Z,25.30
2017-08-08T09:43:38.887Z,25.20
2017-08-08T09:46:06.412Z,25.30
2017-08-08T09:48:33.929Z,25.50
2017-08-08T09:51:01.450Z,25.20
2017-08-08T09:53:29.001Z,25.50
2017-08-08T09:55:56.514Z,25.60
2017-08-08T09:58:24.029Z,26.00
2017-08-08T10:00:51.541Z,26.00
2017-08-08T10:03:19.826Z,26.30
2017-08-08T10:05:48.350Z,26.30
2017-08-08T10:08:15.866Z,26.30
2017-08-08T10:10:44.150Z,26.40
2017-08-08T10:13:12.430Z,26.80
2017-08-08T10:15:39.950Z,26.80
2017-08-08T10:18:07.677Z,26.80
2017-08-08T10:20:35.197Z,26.90
2017-08-08T10:23:03.477Z,27.50
2017-08-08T10:25:31.757Z,27.50
2017-08-08T10:27:59.273Z,27.40
2017-08-08T10:30:26.814Z,27.10
2017-08-08T10:32:54.331Z,27.30
2017-08-08T10:35:21.846Z,27.70
2017-08-08T10:37:49.357Z,27.70
2017-08-08T10:40:16.874Z,27.70
2017-08-08T10:42:44.421Z,27.90
2017-08-08T10:45:11.934Z,28.00
2017-08-08T10:47:39.454Z,28.10
2017-08-08T10:50:06.982Z,28.10
2017-08-08T10:52:34.505Z,28.20
2017-08-08T10:55:02.054Z,28.40
2017-08-08T10:57:30.335Z,28.30
2017-08-08T10:59:57.858Z,28.30
2017-08-08T11:02:25.377Z,28.50
2017-08-08T11:04:52.889Z,28.80
2017-08-08T11:07:21.199Z,28.80
2017-08-08T11:09:48.713Z,28.80
2017-08-08T11:12:16.231Z,28.70
2017-08-08T11:14:43.768Z,28.90
2017-08-08T11:17:11.302Z,29.00
2017-08-08T11:19:39.609Z,28.90
2017-08-08T11:22:07.129Z,28.90
2017-08-08T11:24:35.409Z,29.00
2017-08-08T11:27:03.697Z,29.10
2017-08-08T11:29:31.981Z,29.20
2017-08-08T11:31:59.525Z,29.20
2017-08-08T11:34:27.806Z,29.00
2017-08-08T11:36:56.094Z,29.10
2017-08-08T11:39:23.679Z,29.10
2017-08-08T11:41:51.202Z,29.10
2017-08-08T11:44:18.750Z,29.30
2017-08-08T11:46:47.034Z,29.40
2017-08-08T11:49:15.313Z,29.20
2017-08-08T11:51:43.609Z,29.30
2017-08-08T11:54:11.132Z,29.30
2017-08-08T11:56:39.446Z,30.10
2017-08-08T11:59:06.974Z,30.10
2017-08-08T12:01:35.259Z,30.40
2017-08-08T12:04:03.537Z,30.60
2017-08-08T12:06:31.815Z,30.80
2017-08-08T12:09:00.122Z,30.90
2017-08-08T12:11:27.649Z,30.90
2017-08-08T12:13:55.162Z,30.80
2017-08-08T12:16:22.682Z,30.60
2017-08-08T12:18:50.210Z,31.00
2017-08-08T12:21:18.530Z,30.70
2017-08-08T12:23:46.048Z,30.70
2017-08-08T12:26:14.329Z,31.10
2017-08-08T12:28:42.613Z,31.40
2017-08-08T12:31:10.141Z,31.30
2017-08-08T12:33:37.685Z,31.70
2017-08-08T12:36:05.202Z,31.80
2017-08-08T12:38:32.728Z,32.00
2017-08-08T12:41:01.014Z,32.40
2017-08-08T12:43:29.294Z,32.50
2017-08-08T12:45:56.834Z,32.40
2017-08-08T12:48:25.130Z,32.40
2017-08-08T12:50:52.645Z,32.30
2017-08-08T12:53:20.157Z,32.30
2017-08-08T12:55:47.680Z,32.30
2017-08-08T12:58:15.218Z,32.50
2017-08-08T13:00:42.742Z,32.80
2017-08-08T13:03:10.253Z,33.10
2017-08-08T13:05:37.773Z,33.60
2017-08-08T13:08:05.310Z,33.90
2017-08-08T13:10:32.862Z,34.30
2017-08-08T13:13:00.377Z,34.40
2017-08-08T13:15:27.890Z,34.50
2017-08-08T13:17:55.414Z,34.90
2017-08-08T13:20:23.693Z,34.90
2017-08-08T13:22:51.997Z,35.30
2017-08-08T13:25:19.522Z,35.20
2017-08-08T13:27:47.807Z,35.20
2017-08-08T13:30:16.095Z,35.40
2017-08-08T13:32:43.642Z,35.40
2017-08-08T13:35:11.963Z,36.40
2017-08-08T13:37:39.485Z,36.30
2017-08-08T13:40:07.002Z,37.00
2017-08-08T13:42:34.522Z,37.30
2017-08-08T13:45:02.043Z,37.60
2017-08-08T13:47:30.352Z,37.90
2017-08-08T13:49:57.897Z,37.80
2017-08-08T13:52:25.433Z,38.10
2017-08-08T13:54:53.719Z,38.30
2017-08-08T13:57:22.009Z,38.60
2017-08-08T13:59:49.556Z,38.60
2017-08-08T14:02:17.845Z,38.00
2017-08-08T14:04:45.374Z,38.00
2017-08-08T14:07:12.894Z,38.30
2017-08-08T14:09:40.425Z,38.90
2017-08-08T14:12:07.974Z,39.80
2017-08-08T14:14:35.495Z,40.20
2017-08-08T14:17:03.026Z,41.00
2017-08-08T14:19:30.550Z,41.90
2017-08-08T14:21:58.066Z,42.70
2017-08-08T14:24:25.610Z,43.40
2017-08-08T14:26:53.151Z,43.30
2017-08-08T14:29:20.662Z,43.70
2017-08-08T14:31:48.949Z,43.70
2017-08-08T14:34:17.240Z,44.60
2017-08-08T14:36:44.783Z,44.60
2017-08-08T14:39:13.076Z,44.60
2017-08-08T14:41:40.590Z,44.50
2017-08-08T14:44:08.122Z,44.50
2017-08-08T14:46:35.642Z,44.50
2017-08-08T14:49:03.194Z,44.70
2017-08-08T14:51:31.487Z,45.70
2017-08-08T14:53:59.010Z,45.60
2017-08-08T14:56:26.542Z,45.60
2017-08-08T14:58:54.054Z,45.10
2017-08-08T15:01:21.605Z,44.10
2017-08-08T15:03:49.895Z,42.70
2017-08-08T15:06:17.422Z,42.70
2017-08-08T15:08:45.724Z,42.20
2017-08-08T15:11:14.009Z,41.30
2017-08-08T15:13:41.561Z,41.30
2017-08-08T15:16:09.074Z,39.50
2017-08-08T15:18:36.606Z,38.20
2017-08-08T15:21:04.150Z,37.20
2017-08-08T15:23:31.674Z,36.50
2017-08-08T15:25:59.987Z,35.50
2017-08-08T15:28:27.522Z,35.50
2017-08-08T15:30:55.046Z,35.10
2017-08-08T15:33:22.568Z,35.50
2017-08-08T15:35:50.091Z,36.20
2017-08-08T15:38:18.414Z,37.50
2017-08-08T15:40:45.946Z,37.40
2017-08-08T15:43:13.502Z,37.40
2017-08-08T15:45:41.027Z,37.00
2017-08-08T15:48:08.548Z,37.60
2017-08-08T15:50:36.201Z,38.90
2017-08-08T15:53:03.770Z,39.50
2017-08-08T15:55:31.311Z,39.80
2017-08-08T15:57:58.838Z,40.20
2017-08-08T16:00:27.142Z,37.80
2017-08-08T16:02:54.686Z,37.80
2017-08-08T16:05:22.215Z,36.30
2017-08-08T16:07:49.757Z,35.30
2017-08-08T16:10:17.301Z,35.10
2017-08-08T16:12:44.831Z,34.60
2017-08-08T16:15:12.381Z,34.30
2017-08-08T16:17:39.963Z,33.80
2017-08-08T16:20:07.482Z,32.90
2017-08-08T16:22:35.789Z,31.90
2017-08-08T16:25:03.316Z,31.80
2017-08-08T16:27:31.633Z,31.40
2017-08-08T16:29:59.157Z,31.40
2017-08-08T16:32:26.770Z,31.50
2017-08-08T16:34:54.294Z,31.50
2017-08-08T16:37:21.845Z,31.40
2017-08-08T16:39:49.736Z,31.20
2017-08-08T16:42:17.527Z,31.00
2017-08-08T16:44:45.062Z,30.60
2017-08-08T16:47:12.617Z,30.50
2017-08-08T16:49:40.134Z,30.40
2017-08-08T16:52:08.442Z,30.40
2017-08-08T16:54:35.978Z,30.40
2017-08-08T16:57:04.410Z,30.20
2017-08-08T16:59:31.928Z,30.20
2017-08-08T17:01:59.470Z,30.20
2017-08-08T17:04:27.789Z,30.00
2017-08-08T17:06:55.311Z,30.00
2017-08-08T17:09:23.593Z,29.90
2017-08-08T17:11:51.117Z,29.90
2017-08-08T17:14:18.638Z,29.70
2017-08-08T17:16:46.193Z,29.60
2017-08-08T17:19:13.710Z,29.60
2017-08-08T17:21:42.010Z,29.70
2017-08-08T17:24:09.587Z,29.70
2017-08-08T17:26:37.101Z,29.70
2017-08-08T17:29:05.409Z,29.70
2017-08-08T17:31:32.924Z,29.70
2017-08-08T17:34:00.445Z,29.70
2017-08-08T17:36:27.970Z,29.70
2017-08-08T17:38:55.491Z,29.60
2017-08-08T17:41:23.037Z,29.50
2017-08-08T17:43:50.558Z,29.50
2017-08-08T17:46:18.085Z,29.40
2017-08-08T17:48:46.374Z,29.10
2017-08-08T17:51:14.657Z,29.00
2017-08-08T17:53:42.654Z,29.00
2017-08-08T17:56:10.174Z,29.00
2017-08-08T17:58:38.505Z,28.80
2017-08-08T18:01:06.017Z,28.80
2017-08-08T18:03:33.559Z,28.60
2017-08-08T18:06:01.866Z,28.70
2017-08-08T18:08:29.385Z,28.70
2017-08-08T18:10:56.904Z,28.70
2017-08-08T18:13:24.427Z,28.60
2017-08-08T18:15:51.965Z,28.50
2017-08-08T18:18:20.306Z,28.50
2017-08-08T18:20:47.845Z,28.50
2017-08-08T18:23:15.365Z,28.50
2017-08-08T18:25:43.648Z,28.60
2017-08-08T18:28:11.339Z,28.50
2017-08-08T18:30:38.890Z,28.20
2017-08-08T18:33:06.444Z,28.20
2017-08-08T18:35:33.958Z,28.10
2017-08-08T18:38:01.487Z,28.00
2017-08-08T18:40:29.019Z,28.00
2017-08-08T18:42:56.561Z,28.10
2017-08-08T18:45:24.846Z,27.70
2017-08-08T18:47:52.429Z,27.70
2017-08-08T18:50:19.946Z,27.80
2017-08-08T18:52:48.225Z,27.60
2017-08-08T18:55:16.542Z,27.40
2017-08-08T18:57:44.060Z,27.40
2017-08-08T19:00:12.346Z,27.50
2017-08-08T19:02:40.005Z,27.50
2017-08-08T19:05:07.595Z,27.50
2017-08-08T19:07:35.138Z,27.40
2017-08-08T19:10:02.669Z,27.10
2017-08-08T19:12:30.965Z,27.10
2017-08-08T19:14:58.491Z,27.10
2017-08-08T19:17:26.821Z,27.30
2017-08-08T19:19:54.393Z,27.30
2017-08-08T19:22:21.909Z,27.20
2017-08-08T19:24:50.190Z,27.40
2017-08-08T19:27:17.719Z,27.40
2017-08-08T19:29:45.285Z,27.40
2017-08-08T19:32:13.114Z,27.40
2017-08-08T19:34:40.868Z,27.10
2017-08-08T19:37:08.778Z,27.10
2017-08-08T19:39:36.627Z,27.00
2017-08-08T19:42:04.156Z,27.10
2017-08-08T19:44:31.735Z,27.10
2017-08-08T19:46:59.586Z,27.20
2017-08-08T19:49:27.106Z,27.20
2017-08-08T19:51:55.387Z,27.20
2017-08-08T19:54:23.137Z,27.20
2017-08-08T19:56:51.658Z,27.40
2017-08-08T19:59:19.173Z,27.30
2017-08-08T20:01:48.042Z,27.30
2017-08-08T20:04:15.666Z,27.30
2017-08-08T20:06:43.327Z,27.40
2017-08-08T20:09:10.879Z,27.50
2017-08-08T20:11:38.393Z,27.40
2017-08-08T20:14:05.910Z,27.30
2017-08-08T20:16:34.025Z,27.10
2017-08-08T20:19:02.306Z,26.80
2017-08-08T20:21:30.620Z,26.50
2017-08-08T20:23:58.465Z,26.40
2017-08-08T20:26:26.569Z,26.40
2017-08-08T20:28:54.306Z,26.20
2017-08-08T20:31:22.398Z,26.20
2017-08-08T20:33:50.059Z,26.20
2017-08-08T20:36:21.025Z,26.40
2017-08-08T20:38:48.910Z,26.40
2017-08-08T20:41:16.651Z,26.40
2017-08-08T20:43:44.167Z,26.60
2017-08-08T20:46:11.693Z,26.50
2017-08-08T20:48:39.530Z,26.50
2017-08-08T20:51:07.466Z,26.60
2017-08-08T20:53:35.199Z,26.60
2017-08-08T20:56:03.751Z,26.20
2017-08-08T20:58:31.541Z,26.20
2017-08-08T21:01:00.162Z,26.20
2017-08-08T21:03:27.722Z,26.20
2017-08-08T21:05:55.639Z,26.30
2017-08-08T21:08:23.438Z,26.30
2017-08-08T21:17:20.606Z,26.20
2017-08-08T21:19:49.033Z,25.90
2017-08-08T21:22:16.549Z,25.90
2017-08-08T21:24:44.834Z,26.10
2017-08-08T21:27:13.118Z,26.00
2017-08-08T21:29:40.662Z,26.00
2017-08-08T21:32:08.978Z,26.20
2017-08-08T21:34:36.499Z,26.10
2017-08-08T21:37:04.777Z,26.00
2017-08-08T21:39:33.057Z,25.90
2017-08-08T21:42:01.364Z,25.80
2017-08-08T21:44:28.886Z,25.80
2017-08-08T21:46:57.165Z,25.70
2017-08-08T21:49:24.697Z,25.70
2017-08-08T21:51:52.218Z,25.70
2017-08-08T21:54:19.763Z,25.40
2017-08-08T21:56:47.282Z,25.60
2017-08-08T21:59:15.583Z,25.50
2017-08-08T22:01:43.106Z,25.50
2017-08-08T22:04:10.625Z,25.70
2017-08-08T22:06:38.493Z,25.50
2017-08-08T22:09:06.010Z,25.40
2017-08-08T22:11:34.297Z,25.10
2017-08-08T22:14:01.854Z,25.10
2017-08-08T22:16:29.373Z,25.00
2017-08-08T22:18:56.916Z,25.00
2017-08-08T22:21:24.429Z,25.20
2017-08-08T22:23:52.826Z,25.10
2017-08-08T22:26:20.341Z,25.30
2017-08-08T22:28:47.859Z,25.10
2017-08-08T22:31:15.409Z,25.10
2017-08-08T22:33:42.931Z,25.00
2017-08-08T22:36:11.217Z,24.80
2017-08-08T22:38:38.740Z,24.80
2017-08-08T22:41:06.254Z,25.00
2017-08-08T22:43:33.817Z,25.00
2017-08-08T22:46:01.334Z,24.90
2017-08-08T22:48:29.623Z,25.00
2017-08-08T22:50:57.902Z,24.80
2017-08-08T22:53:25.425Z,24.80
2017-08-08T22:55:52.965Z,24.70
2017-08-08T22:58:20.490Z,24.60
2017-08-08T23:00:48.013Z,24.90
2017-08-08T23:03:15.529Z,25.00
2017-08-08T23:05:43.050Z,24.90
2017-08-08T23:08:10.597Z,24.70
2017-08-08T23:10:38.881Z,24.70
2017-08-08T23:13:07.158Z,25.00
2017-08-08T23:15:35.438Z,24.80
2017-08-08T23:18:02.953Z,24.80
2017-08-08T23:20:30.524Z,24.60
2017-08-08T23:22:58.051Z,24.70
2017-08-08T23:25:25.574Z,24.70
2017-08-08T23:27:53.091Z,24.60
2017-08-08T23:30:20.607Z,24.40
2017-08-08T23:32:48.141Z,24.50
2017-08-08T23:35:16.422Z,24.50
2017-08-08T23:37:43.948Z,24.50
2017-08-08T23:40:11.466Z,24.70
2017-08-08T23:42:38.986Z,24.40
2017-08-08T23:45:07.299Z,24.50
2017-08-08T23:47:34.854Z,24.40
2017-08-08T23:50:02.371Z,24.60
2017-08-08T23:52:30.669Z,24.80
2017-08-08T23:54:58.205Z,24.70
2017-08-08T23:57:26.525Z,24.80
2017-08-08T23:59:54.046Z,24.80
